sensor_id;sensor_type;location;lat;lon;timestamp;temperature;humidity
13833;DHT22;6987;19.472;-99.276;2023-05-24T00:01:31;21.50;72.50
13833;DHT22;6987;19.472;-99.276;2023-05-24T00:04:02;21.40;79.20
13833;DHT22;6987;19.472;-99.276;2023-05-24T00:06:32;21.30;75.10
13833;DHT22;6987;19.472;-99.276;2023-05-24T00:09:03;21.30;69.30
13833;DHT22;6987;19.472;-99.276;2023-05-24T00:11:33;21.20;64.60
13833;DHT22;6987;19.472;-99.276;2023-05-24T00:14:02;21.00;78.00
13833;DHT22;6987;19.472;-99.276;2023-05-24T00:16:32;20.80;83.60
13833;DHT22;6987;19.472;-99.276;2023-05-24T00:19:03;20.60;83.80
13833;DHT22;6987;19.472;-99.276;2023-05-24T00:21:32;20.50;91.20
13833;DHT22;6987;19.472;-99.276;2023-05-24T00:24:03;20.40;92.70
13833;DHT22;6987;19.472;-99.276;2023-05-24T00:26:32;20.30;97.60
13833;DHT22;6987;19.472;-99.276;2023-05-24T00:29:01;20.10;96.40
13833;DHT22;6987;19.472;-99.276;2023-05-24T00:31:31;20.10;99.70
13833;DHT22;6987;19.472;-99.276;2023-05-24T00:34:03;19.90;97.20
13833;DHT22;6987;19.472;-99.276;2023-05-24T00:36:32;19.90;99.90
13833;DHT22;6987;19.472;-99.276;2023-05-24T00:39:04;19.80;99.90
13833;DHT22;6987;19.472;-99.276;2023-05-24T00:41:33;19.70;99.90
13833;DHT22;6987;19.472;-99.276;2023-05-24T00:44:02;19.60;99.90
13833;DHT22;6987;19.472;-99.276;2023-05-24T00:46:32;19.50;99.90
13833;DHT22;6987;19.472;-99.276;2023-05-24T00:49:03;19.40;99.90
13833;DHT22;6987;19.472;-99.276;2023-05-24T00:51:33;19.30;99.90
13833;DHT22;6987;19.472;-99.276;2023-05-24T00:54:03;19.30;99.90
13833;DHT22;6987;19.472;-99.276;2023-05-24T00:56:32;19.30;99.90
13833;DHT22;6987;19.472;-99.276;2023-05-24T00:59:01;19.10;99.90
13833;DHT22;6987;19.472;-99.276;2023-05-24T01:01:31;19.10;99.90
13833;DHT22;6987;19.472;-99.276;2023-05-24T01:04:03;19.10;99.90
13833;DHT22;6987;19.472;-99.276;2023-05-24T01:06:37;19.00;99.90
13833;DHT22;6987;19.472;-99.276;2023-05-24T01:09:23;18.90;99.90
13833;DHT22;6987;19.472;-99.276;2023-05-24T01:12:13;18.90;99.90
13833;DHT22;6987;19.472;-99.276;2023-05-24T01:14:54;18.80;99.90
13833;DHT22;6987;19.472;-99.276;2023-05-24T01:17:30;18.80;99.90
13833;DHT22;6987;19.472;-99.276;2023-05-24T01:20:04;18.80;99.90
13833;DHT22;6987;19.472;-99.276;2023-05-24T01:25:45;18.80;99.90
13833;DHT22;6987;19.472;-99.276;2023-05-24T01:28:18;18.80;99.90
13833;DHT22;6987;19.472;-99.276;2023-05-24T01:30:48;18.70;99.90
13833;DHT22;6987;19.472;-99.276;2023-05-24T01:33:17;18.60;99.90
13833;DHT22;6987;19.472;-99.276;2023-05-24T01:35:46;18.60;99.90
13833;DHT22;6987;19.472;-99.276;2023-05-24T01:38:15;18.60;99.90
13833;DHT22;6987;19.472;-99.276;2023-05-24T01:40:47;18.60;99.90
13833;DHT22;6987;19.472;-99.276;2023-05-24T01:43:25;18.60;99.90
13833;DHT22;6987;19.472;-99.276;2023-05-24T01:46:03;18.60;99.90
13833;DHT22;6987;19.472;-99.276;2023-05-24T01:48:48;18.60;99.90
13833;DHT22;6987;19.472;-99.276;2023-05-24T01:51:23;18.60;99.90
13833;DHT22;6987;19.472;-99.276;2023-05-24T01:53:56;18.80;99.90
13833;DHT22;6987;19.472;-99.276;2023-05-24T01:56:28;18.50;99.90
13833;DHT22;6987;19.472;-99.276;2023-05-24T01:59:01;18.50;99.90
13833;DHT22;6987;19.472;-99.276;2023-05-24T02:01:31;18.50;99.90
13833;DHT22;6987;19.472;-99.276;2023-05-24T02:04:01;18.50;99.90
13833;DHT22;6987;19.472;-99.276;2023-05-24T02:06:31;18.50;99.90
13833;DHT22;6987;19.472;-99.276;2023-05-24T02:09:01;18.50;99.90
13833;DHT22;6987;19.472;-99.276;2023-05-24T02:11:30;18.50;99.90
13833;DHT22;6987;19.472;-99.276;2023-05-24T02:14:01;18.40;99.90
13833;DHT22;6987;19.472;-99.276;2023-05-24T02:16:31;18.40;99.90
13833;DHT22;6987;19.472;-99.276;2023-05-24T02:19:00;18.30;99.90
13833;DHT22;6987;19.472;-99.276;2023-05-24T02:21:29;18.30;99.90
13833;DHT22;6987;19.472;-99.276;2023-05-24T02:23:58;18.30;99.90
13833;DHT22;6987;19.472;-99.276;2023-05-24T02:26:28;18.40;99.90
13833;DHT22;6987;19.472;-99.276;2023-05-24T02:28:57;18.30;99.90
13833;DHT22;6987;19.472;-99.276;2023-05-24T02:31:28;18.30;99.90
13833;DHT22;6987;19.472;-99.276;2023-05-24T02:33:58;18.30;99.90
13833;DHT22;6987;19.472;-99.276;2023-05-24T02:36:28;18.30;99.90
13833;DHT22;6987;19.472;-99.276;2023-05-24T02:38:58;18.30;99.90
13833;DHT22;6987;19.472;-99.276;2023-05-24T02:41:29;18.30;99.90
13833;DHT22;6987;19.472;-99.276;2023-05-24T02:43:58;18.20;99.90
13833;DHT22;6987;19.472;-99.276;2023-05-24T02:46:29;18.20;99.90
13833;DHT22;6987;19.472;-99.276;2023-05-24T02:48:58;18.20;99.90
13833;DHT22;6987;19.472;-99.276;2023-05-24T02:51:27;18.20;99.90
13833;DHT22;6987;19.472;-99.276;2023-05-24T02:53:58;18.10;99.90
13833;DHT22;6987;19.472;-99.276;2023-05-24T02:56:27;18.10;99.90
13833;DHT22;6987;19.472;-99.276;2023-05-24T02:58:57;18.10;99.90
13833;DHT22;6987;19.472;-99.276;2023-05-24T03:01:28;18.10;99.90
13833;DHT22;6987;19.472;-99.276;2023-05-24T03:03:57;18.10;99.90
13833;DHT22;6987;19.472;-99.276;2023-05-24T03:06:26;18.10;99.90
13833;DHT22;6987;19.472;-99.276;2023-05-24T03:08:56;18.10;99.90
13833;DHT22;6987;19.472;-99.276;2023-05-24T03:11:26;18.10;99.90
13833;DHT22;6987;19.472;-99.276;2023-05-24T03:13:55;18.10;99.90
13833;DHT22;6987;19.472;-99.276;2023-05-24T03:16:24;18.10;99.90
13833;DHT22;6987;19.472;-99.276;2023-05-24T03:18:55;18.10;99.90
13833;DHT22;6987;19.472;-99.276;2023-05-24T03:21:25;18.10;99.90
13833;DHT22;6987;19.472;-99.276;2023-05-24T03:23:55;18.00;99.90
13833;DHT22;6987;19.472;-99.276;2023-05-24T03:26:25;18.00;99.90
13833;DHT22;6987;19.472;-99.276;2023-05-24T03:28:54;18.20;99.90
13833;DHT22;6987;19.472;-99.276;2023-05-24T03:31:23;18.00;99.90
13833;DHT22;6987;19.472;-99.276;2023-05-24T03:33:54;18.10;99.90
13833;DHT22;6987;19.472;-99.276;2023-05-24T03:36:23;18.00;99.90
13833;DHT22;6987;19.472;-99.276;2023-05-24T03:38:54;18.00;99.90
13833;DHT22;6987;19.472;-99.276;2023-05-24T03:41:25;18.00;99.90
13833;DHT22;6987;19.472;-99.276;2023-05-24T03:43:55;18.00;99.90
13833;DHT22;6987;19.472;-99.276;2023-05-24T03:46:24;18.00;99.90
13833;DHT22;6987;19.472;-99.276;2023-05-24T03:48:55;18.00;99.90
13833;DHT22;6987;19.472;-99.276;2023-05-24T03:51:24;18.00;99.90
13833;DHT22;6987;19.472;-99.276;2023-05-24T03:53:55;18.00;99.90
13833;DHT22;6987;19.472;-99.276;2023-05-24T03:56:25;18.00;99.90
13833;DHT22;6987;19.472;-99.276;2023-05-24T03:58:54;18.00;99.90
13833;DHT22;6987;19.472;-99.276;2023-05-24T04:01:26;18.00;99.90
13833;DHT22;6987;19.472;-99.276;2023-05-24T04:03:59;17.90;99.90
13833;DHT22;6987;19.472;-99.276;2023-05-24T04:06:29;17.90;99.90
13833;DHT22;6987;19.472;-99.276;2023-05-24T04:08:58;17.80;99.90
13833;DHT22;6987;19.472;-99.276;2023-05-24T04:11:31;17.80;99.90
13833;DHT22;6987;19.472;-99.276;2023-05-24T04:14:00;17.80;99.90
13833;DHT22;6987;19.472;-99.276;2023-05-24T04:16:29;18.10;99.90
13833;DHT22;6987;19.472;-99.276;2023-05-24T04:19:01;17.80;99.90
13833;DHT22;6987;19.472;-99.276;2023-05-24T04:21:31;17.80;99.90
13833;DHT22;6987;19.472;-99.276;2023-05-24T04:24:00;18.00;99.90
13833;DHT22;6987;19.472;-99.276;2023-05-24T04:26:30;17.80;99.90
13833;DHT22;6987;19.472;-99.276;2023-05-24T04:28:59;17.80;99.90
13833;DHT22;6987;19.472;-99.276;2023-05-24T04:31:29;17.80;99.90
13833;DHT22;6987;19.472;-99.276;2023-05-24T04:34:01;17.80;99.90
13833;DHT22;6987;19.472;-99.276;2023-05-24T04:36:33;17.80;99.90
13833;DHT22;6987;19.472;-99.276;2023-05-24T04:39:02;17.80;99.90
13833;DHT22;6987;19.472;-99.276;2023-05-24T04:41:31;17.70;99.90
13833;DHT22;6987;19.472;-99.276;2023-05-24T04:44:01;17.80;99.90
13833;DHT22;6987;19.472;-99.276;2023-05-24T04:46:31;17.70;99.90
13833;DHT22;6987;19.472;-99.276;2023-05-24T04:49:03;17.70;99.90
13833;DHT22;6987;19.472;-99.276;2023-05-24T04:51:34;17.70;99.90
13833;DHT22;6987;19.472;-99.276;2023-05-24T04:54:04;17.70;99.90
13833;DHT22;6987;19.472;-99.276;2023-05-24T04:56:34;17.70;99.90
13833;DHT22;6987;19.472;-99.276;2023-05-24T04:59:04;17.60;99.90
13833;DHT22;6987;19.472;-99.276;2023-05-24T05:01:34;17.60;99.90
13833;DHT22;6987;19.472;-99.276;2023-05-24T05:04:05;17.60;99.90
13833;DHT22;6987;19.472;-99.276;2023-05-24T05:06:34;17.60;99.90
13833;DHT22;6987;19.472;-99.276;2023-05-24T05:09:05;17.60;99.90
13833;DHT22;6987;19.472;-99.276;2023-05-24T05:11:36;17.50;99.90
13833;DHT22;6987;19.472;-99.276;2023-05-24T05:14:06;17.50;99.90
13833;DHT22;6987;19.472;-99.276;2023-05-24T05:16:36;17.60;99.90
13833;DHT22;6987;19.472;-99.276;2023-05-24T05:19:08;17.40;99.90
13833;DHT22;6987;19.472;-99.276;2023-05-24T05:21:38;17.40;99.90
13833;DHT22;6987;19.472;-99.276;2023-05-24T05:24:07;17.40;99.90
13833;DHT22;6987;19.472;-99.276;2023-05-24T05:26:36;17.40;99.90
13833;DHT22;6987;19.472;-99.276;2023-05-24T05:29:06;17.40;99.90
13833;DHT22;6987;19.472;-99.276;2023-05-24T05:31:35;17.30;99.90
13833;DHT22;6987;19.472;-99.276;2023-05-24T05:34:07;17.30;99.90
13833;DHT22;6987;19.472;-99.276;2023-05-24T05:36:37;16.90;99.90
13833;DHT22;6987;19.472;-99.276;2023-05-24T05:39:08;17.30;99.90
13833;DHT22;6987;19.472;-99.276;2023-05-24T05:41:38;17.20;99.90
13833;DHT22;6987;19.472;-99.276;2023-05-24T05:44:10;17.30;99.90
13833;DHT22;6987;19.472;-99.276;2023-05-24T05:46:39;17.70;99.90
13833;DHT22;6987;19.472;-99.276;2023-05-24T05:49:13;17.20;99.90
13833;DHT22;6987;19.472;-99.276;2023-05-24T05:51:44;17.10;99.90
13833;DHT22;6987;19.472;-99.276;2023-05-24T05:54:13;17.00;99.90
13833;DHT22;6987;19.472;-99.276;2023-05-24T05:56:44;17.00;99.90
13833;DHT22;6987;19.472;-99.276;2023-05-24T05:59:14;17.00;99.90
13833;DHT22;6987;19.472;-99.276;2023-05-24T06:01:44;17.10;99.90
13833;DHT22;6987;19.472;-99.276;2023-05-24T06:04:16;17.10;99.90
13833;DHT22;6987;19.472;-99.276;2023-05-24T06:06:46;17.10;99.90
13833;DHT22;6987;19.472;-99.276;2023-05-24T06:09:15;17.10;99.90
13833;DHT22;6987;19.472;-99.276;2023-05-24T06:11:45;17.10;99.90
13833;DHT22;6987;19.472;-99.276;2023-05-24T06:14:14;17.10;99.90
13833;DHT22;6987;19.472;-99.276;2023-05-24T06:16:45;17.10;99.90
13833;DHT22;6987;19.472;-99.276;2023-05-24T06:19:16;17.20;99.90
13833;DHT22;6987;19.472;-99.276;2023-05-24T06:21:46;17.10;99.90
13833;DHT22;6987;19.472;-99.276;2023-05-24T06:24:16;17.10;99.90
13833;DHT22;6987;19.472;-99.276;2023-05-24T06:26:47;17.10;99.90
13833;DHT22;6987;19.472;-99.276;2023-05-24T06:29:16;17.10;99.90
13833;DHT22;6987;19.472;-99.276;2023-05-24T06:31:47;17.10;99.90
13833;DHT22;6987;19.472;-99.276;2023-05-24T06:34:18;17.00;99.90
13833;DHT22;6987;19.472;-99.276;2023-05-24T06:36:49;17.00;99.90
13833;DHT22;6987;19.472;-99.276;2023-05-24T06:39:18;17.00;99.90
13833;DHT22;6987;19.472;-99.276;2023-05-24T06:41:48;17.00;99.90
13833;DHT22;6987;19.472;-99.276;2023-05-24T06:44:17;17.00;99.90
13833;DHT22;6987;19.472;-99.276;2023-05-24T06:46:46;16.90;99.90
13833;DHT22;6987;19.472;-99.276;2023-05-24T06:49:17;17.00;99.90
13833;DHT22;6987;19.472;-99.276;2023-05-24T06:51:48;16.90;99.90
13833;DHT22;6987;19.472;-99.276;2023-05-24T06:54:17;16.90;99.90
13833;DHT22;6987;19.472;-99.276;2023-05-24T06:56:47;16.90;99.90
13833;DHT22;6987;19.472;-99.276;2023-05-24T06:59:17;16.80;99.90
13833;DHT22;6987;19.472;-99.276;2023-05-24T07:01:47;16.70;99.90
13833;DHT22;6987;19.472;-99.276;2023-05-24T07:04:21;16.70;99.90
13833;DHT22;6987;19.472;-99.276;2023-05-24T07:06:51;16.70;99.90
13833;DHT22;6987;19.472;-99.276;2023-05-24T07:09:20;16.60;99.90
13833;DHT22;6987;19.472;-99.276;2023-05-24T07:11:49;16.60;99.90
13833;DHT22;6987;19.472;-99.276;2023-05-24T07:14:18;16.60;99.90
13833;DHT22;6987;19.472;-99.276;2023-05-24T07:16:48;16.60;99.90
13833;DHT22;6987;19.472;-99.276;2023-05-24T07:19:17;16.60;99.90
13833;DHT22;6987;19.472;-99.276;2023-05-24T07:21:49;16.60;99.90
13833;DHT22;6987;19.472;-99.276;2023-05-24T07:24:20;16.60;99.90
13833;DHT22;6987;19.472;-99.276;2023-05-24T07:26:50;16.50;99.90
13833;DHT22;6987;19.472;-99.276;2023-05-24T07:29:19;16.60;99.90
13833;DHT22;6987;19.472;-99.276;2023-05-24T07:31:48;16.50;99.90
13833;DHT22;6987;19.472;-99.276;2023-05-24T07:34:18;16.50;99.90
13833;DHT22;6987;19.472;-99.276;2023-05-24T07:36:50;16.50;99.90
13833;DHT22;6987;19.472;-99.276;2023-05-24T07:39:18;16.50;99.90
13833;DHT22;6987;19.472;-99.276;2023-05-24T07:41:47;16.50;99.90
13833;DHT22;6987;19.472;-99.276;2023-05-24T07:44:16;16.50;99.90
13833;DHT22;6987;19.472;-99.276;2023-05-24T07:46:45;16.50;99.90
13833;DHT22;6987;19.472;-99.276;2023-05-24T07:49:14;16.50;99.90
13833;DHT22;6987;19.472;-99.276;2023-05-24T07:51:44;16.40;99.90
13833;DHT22;6987;19.472;-99.276;2023-05-24T07:54:15;16.40;99.90
13833;DHT22;6987;19.472;-99.276;2023-05-24T07:56:44;16.40;99.90
13833;DHT22;6987;19.472;-99.276;2023-05-24T07:59:13;16.40;99.90
13833;DHT22;6987;19.472;-99.276;2023-05-24T08:01:42;16.30;99.90
13833;DHT22;6987;19.472;-99.276;2023-05-24T08:04:11;16.30;99.90
13833;DHT22;6987;19.472;-99.276;2023-05-24T08:06:40;16.30;99.90
13833;DHT22;6987;19.472;-99.276;2023-05-24T08:09:09;16.30;99.90
13833;DHT22;6987;19.472;-99.276;2023-05-24T08:11:41;16.30;99.90
13833;DHT22;6987;19.472;-99.276;2023-05-24T08:14:10;16.30;99.90
13833;DHT22;6987;19.472;-99.276;2023-05-24T08:16:39;16.20;99.90
13833;DHT22;6987;19.472;-99.276;2023-05-24T08:19:08;16.20;99.90
13833;DHT22;6987;19.472;-99.276;2023-05-24T08:21:37;16.10;99.90
13833;DHT22;6987;19.472;-99.276;2023-05-24T08:24:07;16.20;99.90
13833;DHT22;6987;19.472;-99.276;2023-05-24T08:26:36;16.20;99.90
13833;DHT22;6987;19.472;-99.276;2023-05-24T08:29:07;16.20;99.90
13833;DHT22;6987;19.472;-99.276;2023-05-24T08:31:36;16.20;99.90
13833;DHT22;6987;19.472;-99.276;2023-05-24T08:34:05;16.20;99.90
13833;DHT22;6987;19.472;-99.276;2023-05-24T08:36:34;16.10;99.90
13833;DHT22;6987;19.472;-99.276;2023-05-24T08:39:05;16.10;99.90
13833;DHT22;6987;19.472;-99.276;2023-05-24T08:41:35;16.10;99.90
13833;DHT22;6987;19.472;-99.276;2023-05-24T08:44:07;16.10;99.90
13833;DHT22;6987;19.472;-99.276;2023-05-24T08:46:37;16.10;99.90
13833;DHT22;6987;19.472;-99.276;2023-05-24T08:49:06;16.10;99.90
13833;DHT22;6987;19.472;-99.276;2023-05-24T08:51:38;16.00;99.90
13833;DHT22;6987;19.472;-99.276;2023-05-24T08:54:10;16.10;99.90
13833;DHT22;6987;19.472;-99.276;2023-05-24T08:56:39;16.10;99.90
13833;DHT22;6987;19.472;-99.276;2023-05-24T08:59:10;16.00;99.90
13833;DHT22;6987;19.472;-99.276;2023-05-24T09:01:40;16.00;99.90
13833;DHT22;6987;19.472;-99.276;2023-05-24T09:04:09;16.10;99.90
13833;DHT22;6987;19.472;-99.276;2023-05-24T09:06:38;16.00;99.90
13833;DHT22;6987;19.472;-99.276;2023-05-24T09:09:08;16.00;99.90
13833;DHT22;6987;19.472;-99.276;2023-05-24T09:11:39;16.00;99.90
13833;DHT22;6987;19.472;-99.276;2023-05-24T09:14:11;16.00;99.90
13833;DHT22;6987;19.472;-99.276;2023-05-24T09:16:42;15.90;99.90
13833;DHT22;6987;19.472;-99.276;2023-05-24T09:19:11;15.90;99.90
13833;DHT22;6987;19.472;-99.276;2023-05-24T09:21:40;15.90;99.90
13833;DHT22;6987;19.472;-99.276;2023-05-24T09:24:10;15.90;99.90
13833;DHT22;6987;19.472;-99.276;2023-05-24T09:26:40;15.90;99.90
13833;DHT22;6987;19.472;-99.276;2023-05-24T09:29:11;15.90;99.90
13833;DHT22;6987;19.472;-99.276;2023-05-24T09:31:40;15.80;99.90
13833;DHT22;6987;19.472;-99.276;2023-05-24T09:34:12;15.90;99.90
13833;DHT22;6987;19.472;-99.276;2023-05-24T09:36:44;16.10;99.90
13833;DHT22;6987;19.472;-99.276;2023-05-24T09:39:14;16.00;99.90
13833;DHT22;6987;19.472;-99.276;2023-05-24T09:41:43;16.00;99.90
13833;DHT22;6987;19.472;-99.276;2023-05-24T09:44:26;15.90;99.90
13833;DHT22;6987;19.472;-99.276;2023-05-24T09:47:01;16.00;99.90
13833;DHT22;6987;19.472;-99.276;2023-05-24T09:49:34;16.00;99.90
13833;DHT22;6987;19.472;-99.276;2023-05-24T09:52:04;16.10;99.90
13833;DHT22;6987;19.472;-99.276;2023-05-24T09:54:33;16.00;99.90
13833;DHT22;6987;19.472;-99.276;2023-05-24T09:57:04;16.00;99.90
13833;DHT22;6987;19.472;-99.276;2023-05-24T09:59:35;16.00;99.90
13833;DHT22;6987;19.472;-99.276;2023-05-24T10:02:09;16.10;99.90
13833;DHT22;6987;19.472;-99.276;2023-05-24T10:04:38;16.10;99.90
13833;DHT22;6987;19.472;-99.276;2023-05-24T10:07:07;16.10;99.90
13833;DHT22;6987;19.472;-99.276;2023-05-24T10:09:37;16.10;99.90
13833;DHT22;6987;19.472;-99.276;2023-05-24T10:12:07;16.20;99.90
13833;DHT22;6987;19.472;-99.276;2023-05-24T10:14:38;16.10;99.90
13833;DHT22;6987;19.472;-99.276;2023-05-24T10:17:08;16.00;99.90
13833;DHT22;6987;19.472;-99.276;2023-05-24T10:19:37;16.00;99.90
13833;DHT22;6987;19.472;-99.276;2023-05-24T10:22:07;16.10;99.90
13833;DHT22;6987;19.472;-99.276;2023-05-24T10:24:42;16.10;99.90
13833;DHT22;6987;19.472;-99.276;2023-05-24T10:27:14;16.00;99.90
13833;DHT22;6987;19.472;-99.276;2023-05-24T10:29:53;16.00;99.90
13833;DHT22;6987;19.472;-99.276;2023-05-24T10:32:27;16.00;99.90
13833;DHT22;6987;19.472;-99.276;2023-05-24T10:34:59;16.10;99.90
13833;DHT22;6987;19.472;-99.276;2023-05-24T10:37:29;16.10;99.90
13833;DHT22;6987;19.472;-99.276;2023-05-24T10:39:59;16.10;99.90
13833;DHT22;6987;19.472;-99.276;2023-05-24T10:42:30;16.00;99.90
13833;DHT22;6987;19.472;-99.276;2023-05-24T10:45:28;16.10;99.90
13833;DHT22;6987;19.472;-99.276;2023-05-24T10:48:06;16.10;99.90
13833;DHT22;6987;19.472;-99.276;2023-05-24T10:50:36;16.10;99.90
13833;DHT22;6987;19.472;-99.276;2023-05-24T10:53:12;16.20;99.90
13833;DHT22;6987;19.472;-99.276;2023-05-24T10:55:54;16.10;99.90
13833;DHT22;6987;19.472;-99.276;2023-05-24T10:58:27;16.20;99.90
13833;DHT22;6987;19.472;-99.276;2023-05-24T11:01:25;16.00;99.90
13833;DHT22;6987;19.472;-99.276;2023-05-24T11:04:08;16.00;99.90
13833;DHT22;6987;19.472;-99.276;2023-05-24T11:06:48;16.00;99.90
13833;DHT22;6987;19.472;-99.276;2023-05-24T11:09:17;16.10;99.90
13833;DHT22;6987;19.472;-99.276;2023-05-24T11:11:48;16.10;99.90
13833;DHT22;6987;19.472;-99.276;2023-05-24T11:14:23;16.10;99.90
13833;DHT22;6987;19.472;-99.276;2023-05-24T11:16:54;16.00;99.90
13833;DHT22;6987;19.472;-99.276;2023-05-24T11:19:29;16.10;99.90
13833;DHT22;6987;19.472;-99.276;2023-05-24T11:21:59;16.10;99.90
13833;DHT22;6987;19.472;-99.276;2023-05-24T11:24:29;16.10;99.90
13833;DHT22;6987;19.472;-99.276;2023-05-24T11:27:00;16.10;99.90
13833;DHT22;6987;19.472;-99.276;2023-05-24T11:29:30;16.10;99.90
13833;DHT22;6987;19.472;-99.276;2023-05-24T11:32:01;16.10;99.90
13833;DHT22;6987;19.472;-99.276;2023-05-24T11:34:30;16.10;99.90
13833;DHT22;6987;19.472;-99.276;2023-05-24T11:37:00;16.10;99.90
13833;DHT22;6987;19.472;-99.276;2023-05-24T11:39:32;16.10;99.90
13833;DHT22;6987;19.472;-99.276;2023-05-24T11:42:04;16.00;99.90
13833;DHT22;6987;19.472;-99.276;2023-05-24T11:44:34;15.90;99.90
13833;DHT22;6987;19.472;-99.276;2023-05-24T11:47:06;16.00;99.90
13833;DHT22;6987;19.472;-99.276;2023-05-24T11:49:37;16.00;99.90
13833;DHT22;6987;19.472;-99.276;2023-05-24T11:52:06;16.00;99.90
13833;DHT22;6987;19.472;-99.276;2023-05-24T11:54:36;16.00;99.90
13833;DHT22;6987;19.472;-99.276;2023-05-24T11:57:05;16.00;99.90
13833;DHT22;6987;19.472;-99.276;2023-05-24T11:59:34;16.00;99.90
13833;DHT22;6987;19.472;-99.276;2023-05-24T12:02:06;16.00;99.90
13833;DHT22;6987;19.472;-99.276;2023-05-24T12:04:35;16.00;99.90
13833;DHT22;6987;19.472;-99.276;2023-05-24T12:07:10;15.90;99.90
13833;DHT22;6987;19.472;-99.276;2023-05-24T12:09:39;15.90;99.90
13833;DHT22;6987;19.472;-99.276;2023-05-24T12:12:09;15.90;99.90
13833;DHT22;6987;19.472;-99.276;2023-05-24T12:14:39;16.00;99.90
13833;DHT22;6987;19.472;-99.276;2023-05-24T12:17:13;15.90;99.90
13833;DHT22;6987;19.472;-99.276;2023-05-24T12:19:44;15.90;99.90
13833;DHT22;6987;19.472;-99.276;2023-05-24T12:22:16;15.80;99.90
13833;DHT22;6987;19.472;-99.276;2023-05-24T12:24:48;15.80;99.90
13833;DHT22;6987;19.472;-99.276;2023-05-24T12:27:18;15.80;99.90
13833;DHT22;6987;19.472;-99.276;2023-05-24T12:29:50;15.90;99.90
13833;DHT22;6987;19.472;-99.276;2023-05-24T12:32:20;15.90;99.90
13833;DHT22;6987;19.472;-99.276;2023-05-24T12:34:49;15.90;99.90
13833;DHT22;6987;19.472;-99.276;2023-05-24T12:37:19;15.90;99.90
13833;DHT22;6987;19.472;-99.276;2023-05-24T12:39:48;15.90;99.90
13833;DHT22;6987;19.472;-99.276;2023-05-24T12:42:18;15.90;99.90
13833;DHT22;6987;19.472;-99.276;2023-05-24T12:44:49;15.90;99.90
13833;DHT22;6987;19.472;-99.276;2023-05-24T12:47:21;15.90;99.90
13833;DHT22;6987;19.472;-99.276;2023-05-24T12:49:50;15.90;99.90
13833;DHT22;6987;19.472;-99.276;2023-05-24T12:52:19;15.90;99.90
13833;DHT22;6987;19.472;-99.276;2023-05-24T12:54:48;16.00;99.90
13833;DHT22;6987;19.472;-99.276;2023-05-24T12:57:17;16.00;99.90
13833;DHT22;6987;19.472;-99.276;2023-05-24T12:59:47;16.00;99.90
13833;DHT22;6987;19.472;-99.276;2023-05-24T13:02:16;16.10;99.90
13833;DHT22;6987;19.472;-99.276;2023-05-24T13:04:47;16.10;99.90
13833;DHT22;6987;19.472;-99.276;2023-05-24T13:07:16;16.10;99.90
13833;DHT22;6987;19.472;-99.276;2023-05-24T13:09:45;16.20;99.90
13833;DHT22;6987;19.472;-99.276;2023-05-24T13:12:15;16.20;99.90
13833;DHT22;6987;19.472;-99.276;2023-05-24T13:14:43;16.20;99.90
13833;DHT22;6987;19.472;-99.276;2023-05-24T13:17:12;16.30;99.90
13833;DHT22;6987;19.472;-99.276;2023-05-24T13:19:43;16.30;99.90
13833;DHT22;6987;19.472;-99.276;2023-05-24T13:22:15;16.40;99.90
13833;DHT22;6987;19.472;-99.276;2023-05-24T13:24:44;16.40;99.90
13833;DHT22;6987;19.472;-99.276;2023-05-24T13:27:12;16.50;99.90
13833;DHT22;6987;19.472;-99.276;2023-05-24T13:29:42;16.80;99.90
13833;DHT22;6987;19.472;-99.276;2023-05-24T13:32:11;16.60;99.90
13833;DHT22;6987;19.472;-99.276;2023-05-24T13:34:40;16.70;99.90
13833;DHT22;6987;19.472;-99.276;2023-05-24T13:37:09;16.80;99.90
13833;DHT22;6987;19.472;-99.276;2023-05-24T13:39:40;16.80;99.90
13833;DHT22;6987;19.472;-99.276;2023-05-24T13:42:10;16.90;99.90
13833;DHT22;6987;19.472;-99.276;2023-05-24T13:44:39;16.90;99.90
13833;DHT22;6987;19.472;-99.276;2023-05-24T13:47:08;17.00;99.90
13833;DHT22;6987;19.472;-99.276;2023-05-24T13:49:37;17.00;99.90
13833;DHT22;6987;19.472;-99.276;2023-05-24T13:52:06;17.00;99.90
13833;DHT22;6987;19.472;-99.276;2023-05-24T13:54:36;17.10;99.90
13833;DHT22;6987;19.472;-99.276;2023-05-24T13:57:07;17.20;99.90
13833;DHT22;6987;19.472;-99.276;2023-05-24T13:59:36;17.30;99.90
13833;DHT22;6987;19.472;-99.276;2023-05-24T14:02:05;17.30;99.90
13833;DHT22;6987;19.472;-99.276;2023-05-24T14:04:35;17.30;99.90
13833;DHT22;6987;19.472;-99.276;2023-05-24T14:07:04;17.40;99.90
13833;DHT22;6987;19.472;-99.276;2023-05-24T14:09:34;17.40;99.90
13833;DHT22;6987;19.472;-99.276;2023-05-24T14:12:03;17.50;99.90
13833;DHT22;6987;19.472;-99.276;2023-05-24T14:14:35;17.50;99.90
13833;DHT22;6987;19.472;-99.276;2023-05-24T14:17:04;17.50;99.90
13833;DHT22;6987;19.472;-99.276;2023-05-24T14:19:33;17.70;99.90
13833;DHT22;6987;19.472;-99.276;2023-05-24T14:22:02;17.70;99.90
13833;DHT22;6987;19.472;-99.276;2023-05-24T14:24:31;17.80;99.90
13833;DHT22;6987;19.472;-99.276;2023-05-24T14:27:00;17.90;99.90
13833;DHT22;6987;19.472;-99.276;2023-05-24T14:29:30;17.90;99.90
13833;DHT22;6987;19.472;-99.276;2023-05-24T14:32:00;18.10;99.90
13833;DHT22;6987;19.472;-99.276;2023-05-24T14:34:29;18.10;99.90
13833;DHT22;6987;19.472;-99.276;2023-05-24T14:36:59;18.10;99.90
13833;DHT22;6987;19.472;-99.276;2023-05-24T14:39:28;18.20;99.90
13833;DHT22;6987;19.472;-99.276;2023-05-24T14:41:57;18.20;99.90
13833;DHT22;6987;19.472;-99.276;2023-05-24T14:44:26;18.30;99.90
13833;DHT22;6987;19.472;-99.276;2023-05-24T14:46:55;18.30;99.90
13833;DHT22;6987;19.472;-99.276;2023-05-24T14:49:25;18.40;99.90
13833;DHT22;6987;19.472;-99.276;2023-05-24T14:51:54;18.50;99.90
13833;DHT22;6987;19.472;-99.276;2023-05-24T14:54:23;18.60;99.90
13833;DHT22;6987;19.472;-99.276;2023-05-24T14:56:53;18.60;99.90
13833;DHT22;6987;19.472;-99.276;2023-05-24T14:59:22;18.70;99.90
13833;DHT22;6987;19.472;-99.276;2023-05-24T15:01:51;18.80;99.90
13833;DHT22;6987;19.472;-99.276;2023-05-24T15:04:21;18.90;99.90
13833;DHT22;6987;19.472;-99.276;2023-05-24T15:06:51;18.90;99.90
13833;DHT22;6987;19.472;-99.276;2023-05-24T15:09:20;19.00;99.90
13833;DHT22;6987;19.472;-99.276;2023-05-24T15:11:49;19.10;99.90
13833;DHT22;6987;19.472;-99.276;2023-05-24T15:14:19;19.20;99.90
13833;DHT22;6987;19.472;-99.276;2023-05-24T15:16:48;19.20;99.90
13833;DHT22;6987;19.472;-99.276;2023-05-24T15:19:17;19.30;99.90
13833;DHT22;6987;19.472;-99.276;2023-05-24T15:21:46;19.30;99.90
13833;DHT22;6987;19.472;-99.276;2023-05-24T15:24:18;19.40;99.90
13833;DHT22;6987;19.472;-99.276;2023-05-24T15:26:47;19.40;99.90
13833;DHT22;6987;19.472;-99.276;2023-05-24T15:29:16;19.50;99.90
13833;DHT22;6987;19.472;-99.276;2023-05-24T15:31:46;19.60;99.90
13833;DHT22;6987;19.472;-99.276;2023-05-24T15:34:15;19.70;99.90
13833;DHT22;6987;19.472;-99.276;2023-05-24T15:36:45;19.80;99.90
13833;DHT22;6987;19.472;-99.276;2023-05-24T15:39:16;19.90;99.90